createdAt,value
2022-10-31T00:00:28.383Z,58.38
2022-10-31T00:02:54.753Z,54.78
2022-10-31T00:05:21.798Z,56.45
2022-10-31T00:07:48.349Z,59.58
2022-10-31T00:10:14.779Z,56.35
2022-10-31T00:12:41.185Z,62.70
2022-10-31T00:15:07.764Z,59.15
2022-10-31T00:17:36.519Z,53.20
2022-10-31T00:20:03.167Z,56.22
2022-10-31T00:22:29.517Z,58.47
2022-10-31T00:24:55.843Z,58.47
2022-10-31T00:27:22.162Z,58.30
2022-10-31T00:29:48.472Z,60.10
2022-10-31T00:32:14.799Z,56.85
2022-10-31T00:34:41.119Z,58.08
2022-10-31T00:37:07.422Z,62.33
2022-10-31T00:39:34.923Z,55.17
2022-10-31T00:42:01.268Z,55.83
2022-10-31T00:44:27.609Z,55.22
2022-10-31T00:46:53.959Z,54.00
2022-10-31T00:49:20.394Z,52.15
2022-10-31T00:51:46.762Z,54.92
2022-10-31T00:54:13.099Z,55.70
2022-10-31T00:56:39.433Z,56.63
2022-10-31T00:59:05.799Z,55.38
2022-10-31T01:01:32.227Z,54.20
2022-10-31T01:03:58.743Z,50.65
2022-10-31T01:06:25.057Z,56.40
2022-10-31T01:08:51.426Z,51.67
2022-10-31T01:11:20.751Z,54.80
2022-10-31T01:13:48.309Z,52.75
2022-10-31T01:16:17.261Z,52.78
2022-10-31T01:18:44.084Z,52.42
2022-10-31T01:21:16.131Z,50.88
2022-10-31T01:23:42.987Z,50.33
2022-10-31T01:26:10.774Z,53.72
2022-10-31T01:28:39.401Z,51.72
2022-10-31T01:31:09.214Z,51.83
2022-10-31T01:33:36.662Z,50.20
2022-10-31T01:36:17.617Z,51.50
2022-10-31T01:38:44.028Z,50.13
2022-10-31T01:41:13.309Z,54.47
2022-10-31T01:43:54.598Z,57.42
2022-10-31T01:46:36.525Z,53.72
2022-10-31T01:49:06.552Z,52.55
2022-10-31T01:51:37.688Z,57.20
2022-10-31T01:54:11.561Z,59.42
2022-10-31T01:56:41.728Z,65.57
2022-10-31T01:59:12.084Z,64.50
2022-10-31T02:01:39.202Z,65.72
2022-10-31T02:04:06.907Z,69.05
2022-10-31T02:06:49.588Z,65.35
2022-10-31T02:09:16.121Z,65.65
2022-10-31T02:11:44.009Z,66.30
2022-10-31T02:14:10.743Z,62.03
2022-10-31T02:16:37.056Z,64.47
2022-10-31T02:19:08.734Z,63.58
2022-10-31T02:22:03.213Z,60.78
2022-10-31T02:25:05.265Z,57.70
2022-10-31T02:28:02.461Z,57.22
2022-10-31T02:30:54.630Z,56.55
2022-10-31T02:33:26.743Z,63.47
2022-10-31T02:36:06.169Z,60.92
2022-10-31T02:38:48.125Z,64.93
2022-10-31T02:41:25.985Z,67.95
2022-10-31T02:44:10.812Z,62.50
2022-10-31T02:46:50.944Z,66.32
2022-10-31T02:49:26.289Z,64.68
2022-10-31T02:51:52.703Z,67.03
2022-10-31T02:54:22.319Z,65.60
2022-10-31T02:56:52.172Z,63.00
2022-10-31T02:59:18.732Z,61.40
2022-10-31T03:02:03.444Z,63.85
2022-10-31T03:04:48.302Z,63.13
2022-10-31T03:10:14.829Z,51.83
2022-10-31T03:12:48.570Z,60.67
2022-10-31T03:15:24.048Z,62.88
2022-10-31T03:17:59.204Z,64.88
2022-10-31T03:20:35.396Z,66.45
2022-10-31T03:23:05.214Z,64.50
2022-10-31T03:25:35.283Z,65.47
2022-10-31T03:28:05.439Z,68.57
2022-10-31T03:30:36.028Z,65.68
2022-10-31T03:33:07.374Z,66.18
2022-10-31T03:35:35.784Z,62.55
2022-10-31T03:38:06.974Z,65.55
2022-10-31T03:40:37.697Z,63.92
2022-10-31T03:43:13.758Z,63.65
2022-10-31T04:01:18.017Z,63.97
2022-10-31T04:03:45.951Z,62.28
2022-10-31T04:06:15.771Z,65.88
2022-10-31T04:08:56.761Z,65.22
2022-10-31T04:11:29.299Z,65.97
2022-10-31T04:13:57.708Z,63.15
2022-10-31T04:16:26.487Z,61.58
2022-10-31T04:18:53.060Z,64.47
2022-10-31T04:21:19.427Z,60.70
2022-10-31T04:23:45.823Z,64.75
2022-10-31T04:26:13.391Z,62.33
2022-10-31T04:28:39.923Z,60.88
2022-10-31T04:31:06.397Z,64.82
2022-10-31T04:33:32.702Z,63.42
2022-10-31T04:35:59.058Z,62.38
2022-10-31T04:38:25.520Z,59.55
2022-10-31T04:40:51.860Z,60.47
2022-10-31T04:45:49.783Z,60.08
2022-10-31T04:48:16.349Z,59.95
2022-10-31T04:50:42.782Z,60.20
2022-10-31T04:53:09.201Z,60.42
2022-10-31T04:55:36.817Z,64.20
2022-10-31T04:58:04.327Z,64.65
2022-10-31T05:00:30.997Z,64.28
2022-10-31T05:02:59.172Z,61.60
2022-10-31T05:05:28.985Z,62.72
2022-10-31T05:07:56.479Z,62.97
2022-10-31T05:10:25.239Z,60.40
2022-10-31T05:12:58.354Z,64.57
2022-10-31T05:15:26.900Z,61.83
2022-10-31T05:17:54.491Z,65.20
2022-10-31T05:20:24.028Z,64.18
2022-10-31T05:22:53.433Z,63.53
2022-10-31T05:25:22.156Z,63.97
2022-10-31T05:27:50.568Z,59.70
2022-10-31T05:30:36.614Z,60.60
2022-10-31T05:33:03.242Z,61.40
2022-10-31T05:35:32.645Z,60.53
2022-10-31T05:37:59.607Z,58.90
2022-10-31T05:40:27.714Z,62.03
2022-10-31T05:42:56.302Z,64.25
2022-10-31T05:45:23.763Z,63.08
2022-10-31T05:47:54.782Z,60.35
2022-10-31T05:50:22.309Z,63.78
2022-10-31T05:52:48.739Z,58.80
2022-10-31T05:55:15.154Z,62.55
2022-10-31T05:57:41.457Z,64.50
2022-10-31T06:00:08.691Z,61.65
2022-10-31T06:02:35.463Z,62.17
2022-10-31T06:05:02.688Z,60.70
2022-10-31T06:07:33.943Z,62.70
2022-10-31T06:10:00.433Z,65.25
2022-10-31T06:12:26.811Z,64.57
2022-10-31T06:14:53.132Z,61.80
2022-10-31T06:17:19.462Z,59.20
2022-10-31T06:19:45.855Z,58.00
2022-10-31T06:22:12.408Z,58.95
2022-10-31T06:24:39.326Z,60.20
2022-10-31T06:27:07.154Z,54.42
2022-10-31T06:29:33.531Z,58.10
2022-10-31T06:31:59.876Z,57.30
2022-10-31T06:34:26.184Z,56.92
2022-10-31T06:36:52.597Z,58.60
2022-10-31T06:39:18.946Z,59.60
2022-10-31T06:41:48.613Z,61.03
2022-10-31T06:44:15.018Z,58.80
2022-10-31T06:46:41.362Z,59.05
2022-10-31T06:49:07.656Z,58.92
2022-10-31T06:51:34.023Z,59.10
2022-10-31T06:54:00.347Z,59.55
2022-10-31T06:56:26.784Z,60.95
2022-10-31T06:58:53.188Z,57.65
2022-10-31T07:01:19.647Z,56.28
2022-10-31T07:03:46.430Z,52.58
2022-10-31T07:06:14.008Z,58.65
2022-10-31T07:08:40.689Z,58.72
2022-10-31T07:11:06.996Z,58.53
2022-10-31T07:13:33.694Z,60.05
2022-10-31T07:16:02.474Z,56.85
2022-10-31T07:18:29.188Z,56.05
2022-10-31T07:20:55.716Z,58.35
2022-10-31T07:23:22.836Z,57.50
2022-10-31T07:25:49.157Z,59.38
2022-10-31T07:28:15.714Z,56.72
2022-10-31T07:30:42.039Z,57.80
2022-10-31T07:33:09.366Z,58.80
2022-10-31T07:35:36.290Z,62.08
2022-10-31T07:38:13.815Z,59.10
2022-10-31T07:40:41.206Z,60.97
2022-10-31T07:43:10.151Z,59.75
2022-10-31T07:45:39.523Z,60.40
2022-10-31T07:48:06.541Z,58.90
2022-10-31T07:50:36.752Z,60.38
2022-10-31T07:53:11.736Z,61.83
2022-10-31T07:55:38.741Z,63.70
2022-10-31T07:58:06.395Z,60.00
2022-10-31T08:00:34.747Z,64.18
2022-10-31T08:03:03.826Z,63.10
2022-10-31T08:05:31.762Z,69.00
2022-10-31T08:07:59.098Z,70.63
2022-10-31T08:10:27.079Z,71.20
2022-10-31T08:12:58.312Z,68.97
2022-10-31T08:15:25.261Z,66.80
2022-10-31T08:17:51.668Z,64.32
2022-10-31T08:20:18.993Z,63.83
2022-10-31T08:22:53.845Z,61.78
2022-10-31T08:25:20.168Z,59.88
2022-10-31T08:27:51.564Z,57.78
2022-10-31T08:30:18.652Z,59.95
2022-10-31T08:32:46.215Z,59.75
2022-10-31T08:35:12.666Z,59.35
2022-10-31T08:37:38.989Z,54.30
2022-10-31T08:40:07.456Z,56.47
2022-10-31T08:42:33.900Z,60.50
2022-10-31T08:45:00.289Z,59.95
2022-10-31T08:47:26.754Z,56.08
2022-10-31T08:49:53.056Z,56.05
2022-10-31T08:52:19.375Z,59.17
2022-10-31T08:54:45.688Z,62.42
2022-10-31T08:57:12.000Z,58.25
2022-10-31T08:59:38.309Z,56.83
2022-10-31T09:02:06.121Z,59.05
2022-10-31T09:04:32.448Z,60.25
2022-10-31T09:07:20.041Z,60.88
2022-10-31T09:09:45.152Z,62.33
2022-10-31T09:12:11.465Z,61.47
2022-10-31T09:14:37.821Z,56.83
2022-10-31T09:17:04.141Z,63.25
2022-10-31T09:19:30.649Z,64.05
2022-10-31T09:21:57.013Z,61.38
2022-10-31T09:24:23.418Z,62.40
2022-10-31T09:26:49.764Z,60.33
2022-10-31T09:29:16.104Z,62.45
2022-10-31T09:31:45.043Z,64.82
2022-10-31T09:34:11.617Z,66.32
2022-10-31T09:36:39.271Z,58.35
2022-10-31T09:39:05.637Z,62.53
2022-10-31T09:41:57.245Z,61.17
2022-10-31T09:44:39.204Z,51.20
2022-10-31T09:47:24.714Z,56.13
2022-10-31T09:50:17.959Z,52.97
2022-10-31T09:52:55.041Z,52.60
2022-10-31T09:55:42.841Z,46.33
2022-10-31T09:58:20.769Z,47.28
2022-10-31T10:00:48.816Z,47.00
2022-10-31T10:03:29.684Z,40.08
2022-10-31T10:06:05.538Z,37.97
2022-10-31T10:08:34.118Z,35.67
2022-10-31T10:11:23.864Z,35.60
2022-10-31T10:14:19.045Z,38.78
2022-10-31T10:17:07.265Z,34.78
2022-10-31T10:19:58.587Z,47.75
2022-10-31T10:22:43.526Z,38.38
2022-10-31T10:25:15.293Z,39.28
2022-10-31T10:28:03.480Z,35.03
2022-10-31T10:30:49.670Z,39.67
2022-10-31T10:33:31.883Z,37.95
2022-10-31T10:36:01.490Z,36.50
2022-10-31T10:38:44.558Z,36.78
2022-10-31T10:41:21.727Z,37.00
2022-10-31T10:43:52.474Z,38.38
2022-10-31T10:47:00.847Z,35.58
2022-10-31T10:49:48.788Z,37.83
2022-10-31T10:52:42.032Z,32.85
2022-10-31T10:55:12.813Z,32.70
2022-10-31T10:57:59.750Z,37.65
2022-10-31T11:00:30.366Z,33.47
2022-10-31T11:02:57.527Z,36.55
2022-10-31T11:05:51.526Z,34.35
2022-10-31T11:08:44.403Z,36.00
2022-10-31T11:11:26.652Z,33.65
2022-10-31T11:14:12.665Z,33.88
2022-10-31T11:16:42.796Z,36.45
2022-10-31T11:19:18.221Z,39.20
2022-10-31T11:21:53.778Z,35.22
2022-10-31T11:24:28.328Z,37.38
2022-10-31T11:27:29.488Z,36.22
2022-10-31T11:30:06.526Z,36.65
2022-10-31T11:32:33.330Z,36.15
2022-10-31T11:35:03.443Z,35.35
2022-10-31T11:37:43.571Z,37.33
2022-10-31T11:40:22.122Z,35.33
2022-10-31T11:42:50.676Z,34.40
2022-10-31T11:45:23.077Z,35.97
2022-10-31T11:47:56.732Z,44.33
2022-10-31T11:50:40.212Z,40.00
2022-10-31T11:53:18.808Z,36.60
2022-10-31T11:55:47.357Z,37.47
2022-10-31T11:58:25.822Z,34.80
2022-10-31T12:00:55.716Z,35.58
2022-10-31T12:03:39.538Z,33.88
2022-10-31T12:06:24.610Z,34.83
2022-10-31T12:08:53.589Z,35.45
2022-10-31T12:11:35.272Z,35.63
2022-10-31T12:14:04.601Z,32.63
2022-10-31T12:16:40.965Z,30.35
2022-10-31T12:19:30.524Z,27.38
2022-10-31T12:22:24.975Z,22.27
2022-10-31T12:25:16.417Z,23.35
2022-10-31T12:28:04.714Z,23.20
2022-10-31T12:31:08.477Z,23.65
2022-10-31T12:34:17.156Z,21.27
2022-10-31T12:37:13.769Z,21.73
2022-10-31T12:39:52.867Z,20.33
2022-10-31T12:42:48.115Z,22.35
2022-10-31T12:45:45.824Z,22.05
2022-10-31T12:48:28.193Z,22.77
2022-10-31T12:51:16.377Z,23.17
2022-10-31T12:53:42.669Z,23.70
2022-10-31T12:56:20.276Z,23.23
2022-10-31T12:58:52.559Z,20.50
2022-10-31T13:01:25.359Z,20.27
2022-10-31T13:04:22.625Z,17.77
2022-10-31T13:07:00.462Z,18.42
2022-10-31T13:09:37.944Z,18.00
2022-10-31T13:12:11.254Z,19.30
2022-10-31T13:14:46.936Z,19.10
2022-10-31T13:17:44.401Z,19.55
2022-10-31T13:20:20.806Z,17.88
2022-10-31T13:22:51.124Z,18.10
2022-10-31T13:25:25.526Z,20.10
2022-10-31T13:30:32.221Z,20.88
2022-10-31T13:33:10.478Z,19.70
2022-10-31T13:35:44.341Z,20.60
2022-10-31T13:38:35.929Z,20.65
2022-10-31T13:41:18.962Z,18.63
2022-10-31T13:44:02.378Z,15.32
2022-10-31T13:46:34.549Z,15.85
2022-10-31T13:49:01.295Z,16.00
2022-10-31T13:51:34.913Z,16.45
2022-10-31T13:54:21.915Z,16.58
2022-10-31T13:56:53.467Z,16.40
2022-10-31T13:59:22.008Z,16.30
2022-10-31T14:01:55.984Z,16.00
2022-10-31T14:04:40.230Z,15.95
2022-10-31T14:07:13.152Z,15.77
2022-10-31T14:09:59.680Z,14.85
2022-10-31T14:12:34.494Z,15.45
2022-10-31T14:15:13.144Z,16.10
2022-10-31T14:17:47.920Z,16.20
2022-10-31T14:20:14.930Z,16.83
2022-10-31T14:22:43.094Z,16.88
2022-10-31T14:25:36.125Z,15.32
2022-10-31T14:28:19.191Z,16.20
2022-10-31T14:30:57.958Z,15.20
2022-10-31T14:33:27.915Z,15.55
2022-10-31T14:36:04.374Z,15.63
2022-10-31T14:38:48.724Z,15.90
2022-10-31T14:41:29.368Z,18.25
2022-10-31T14:44:15.487Z,18.88
2022-10-31T14:47:03.389Z,14.88
2022-10-31T14:49:54.449Z,17.80
2022-10-31T14:52:22.027Z,14.70
2022-10-31T14:54:54.614Z,16.15
2022-10-31T14:57:29.766Z,16.05
2022-10-31T15:00:06.034Z,14.98
2022-10-31T15:02:42.463Z,15.20
2022-10-31T15:05:10.961Z,14.52
2022-10-31T15:07:40.910Z,14.27
2022-10-31T15:10:21.353Z,14.02
2022-10-31T15:12:47.863Z,15.20
2022-10-31T15:15:26.747Z,14.43
2022-10-31T15:18:00.455Z,14.95
2022-10-31T15:20:29.441Z,16.40
2022-10-31T15:22:58.709Z,17.33
2022-10-31T15:25:28.996Z,17.05
2022-10-31T15:27:55.322Z,17.65
2022-10-31T15:30:27.920Z,17.08
2022-10-31T15:32:58.770Z,15.93
2022-10-31T15:35:30.965Z,14.68
2022-10-31T15:37:59.872Z,15.85
2022-10-31T15:40:28.051Z,15.02
2022-10-31T15:42:58.962Z,16.48
2022-10-31T15:45:27.978Z,16.30
2022-10-31T15:47:58.754Z,17.67
2022-10-31T15:50:33.510Z,16.30
2022-10-31T15:55:30.530Z,14.50
2022-10-31T15:57:59.574Z,18.40
2022-10-31T16:00:30.404Z,22.05
2022-10-31T16:03:22.553Z,20.40
2022-10-31T16:05:52.036Z,19.40
2022-10-31T16:08:27.591Z,18.92
2022-10-31T16:10:54.309Z,19.50
2022-10-31T16:13:27.057Z,20.20
2022-10-31T16:16:28.735Z,22.08
2022-10-31T16:18:47.505Z,22.65
2022-10-31T16:21:14.175Z,22.65
2022-10-31T16:23:46.831Z,21.70
2022-10-31T16:26:19.568Z,23.27
2022-10-31T16:29:03.199Z,22.40
2022-10-31T16:31:41.016Z,24.50
2022-10-31T16:34:26.239Z,25.00
2022-10-31T16:36:53.641Z,26.23
2022-10-31T16:39:20.097Z,26.00
2022-10-31T16:41:50.200Z,26.63
2022-10-31T16:44:23.360Z,27.45
2022-10-31T16:47:08.417Z,27.40
2022-10-31T16:49:34.786Z,29.02
2022-10-31T16:52:01.147Z,29.73
2022-10-31T16:54:30.044Z,29.38
2022-10-31T16:56:56.521Z,28.48
2022-10-31T16:59:22.852Z,28.58
2022-10-31T17:01:50.208Z,30.83
2022-10-31T17:04:16.757Z,27.63
2022-10-31T17:06:43.226Z,27.95
2022-10-31T17:09:09.817Z,26.63
2022-10-31T17:11:36.854Z,27.10
2022-10-31T17:14:05.721Z,28.10
2022-10-31T17:16:32.029Z,29.23
2022-10-31T17:18:58.343Z,30.13
2022-10-31T17:21:26.300Z,29.95
2022-10-31T17:23:52.601Z,28.95
2022-10-31T17:26:19.775Z,28.35
2022-10-31T17:28:46.375Z,28.08
2022-10-31T17:31:23.527Z,29.05
2022-10-31T17:33:50.745Z,28.65
2022-10-31T17:36:17.479Z,28.58
2022-10-31T17:38:43.791Z,28.65
2022-10-31T17:41:11.453Z,29.13
2022-10-31T17:43:38.265Z,28.85
2022-10-31T17:46:05.085Z,26.27
2022-10-31T17:48:33.725Z,26.63
2022-10-31T17:51:01.813Z,24.33
2022-10-31T17:53:30.304Z,26.60
2022-10-31T17:56:07.789Z,25.73
2022-10-31T17:58:35.533Z,25.92
2022-10-31T18:01:08.269Z,27.73
2022-10-31T18:03:34.744Z,27.30
2022-10-31T18:06:01.055Z,27.80
2022-10-31T18:08:29.667Z,27.77
2022-10-31T18:10:59.657Z,25.73
2022-10-31T18:13:27.555Z,26.77
2022-10-31T18:15:54.559Z,27.13
2022-10-31T18:18:21.587Z,27.90
2022-10-31T18:20:48.000Z,26.15
2022-10-31T18:23:14.641Z,28.35
2022-10-31T18:25:43.249Z,28.88
2022-10-31T18:28:10.391Z,28.05
2022-10-31T18:30:41.356Z,28.23
2022-10-31T18:33:08.464Z,27.63
2022-10-31T18:35:39.113Z,26.73
2022-10-31T18:38:06.833Z,27.52
2022-10-31T18:40:35.685Z,28.40
2022-10-31T18:43:03.386Z,27.98
2022-10-31T18:45:41.745Z,25.60
2022-10-31T18:48:14.322Z,26.83
2022-10-31T18:50:41.463Z,26.60
2022-10-31T18:53:07.956Z,26.63
2022-10-31T18:55:34.509Z,27.00
2022-10-31T18:58:00.828Z,26.58
2022-10-31T19:00:27.155Z,26.90
2022-10-31T19:02:56.321Z,27.02
2022-10-31T19:05:23.073Z,28.38
2022-10-31T19:07:49.406Z,28.73
2022-10-31T19:10:15.901Z,28.30
2022-10-31T19:12:42.217Z,30.58
2022-10-31T19:15:08.934Z,27.30
2022-10-31T19:17:35.249Z,28.50
2022-10-31T19:20:01.585Z,28.25
2022-10-31T19:22:31.056Z,28.63
2022-10-31T19:24:57.344Z,28.75
2022-10-31T19:27:26.308Z,27.83
2022-10-31T19:29:52.645Z,27.20
2022-10-31T19:32:19.201Z,26.88
2022-10-31T19:34:45.587Z,26.58
2022-10-31T19:37:12.064Z,27.83
2022-10-31T19:39:43.712Z,27.40
2022-10-31T19:42:10.702Z,26.38
2022-10-31T19:44:37.233Z,26.30
2022-10-31T19:47:03.600Z,26.88
2022-10-31T19:49:30.010Z,25.98
2022-10-31T19:51:56.440Z,26.73
2022-10-31T19:54:23.500Z,26.88
2022-10-31T19:56:49.938Z,27.08
2022-10-31T19:59:16.319Z,27.58
2022-10-31T20:01:42.735Z,28.35
2022-10-31T20:04:09.244Z,27.45
2022-10-31T20:06:46.736Z,28.30
2022-10-31T20:09:18.908Z,27.45
2022-10-31T20:11:51.894Z,29.00
2022-10-31T20:14:24.257Z,27.40
2022-10-31T20:16:59.374Z,27.48
2022-10-31T20:19:25.684Z,26.70
2022-10-31T20:21:52.193Z,27.25
2022-10-31T20:24:18.889Z,27.10
2022-10-31T20:26:45.245Z,26.10
2022-10-31T20:29:19.520Z,26.65
2022-10-31T20:31:47.135Z,27.83
2022-10-31T20:34:14.802Z,28.23
2022-10-31T20:36:41.350Z,28.92
2022-10-31T20:39:09.314Z,27.30
2022-10-31T20:41:39.406Z,28.00
2022-10-31T20:44:06.474Z,27.55
2022-10-31T20:46:33.034Z,27.45
2022-10-31T20:48:59.732Z,26.65
2022-10-31T20:51:28.232Z,27.38
2022-10-31T20:53:56.328Z,27.42
2022-10-31T20:56:24.522Z,26.25
2022-10-31T20:58:51.483Z,26.60
2022-10-31T21:01:21.179Z,28.25
2022-10-31T21:03:48.696Z,28.33
2022-10-31T21:06:16.388Z,26.98
2022-10-31T21:08:43.350Z,27.23
2022-10-31T21:11:13.512Z,25.05
2022-10-31T21:13:42.049Z,26.08
2022-10-31T21:16:11.590Z,28.30
2022-10-31T21:18:39.610Z,26.63
2022-10-31T21:21:11.463Z,27.98
2022-10-31T21:23:38.732Z,28.08
2022-10-31T21:26:11.059Z,27.83
2022-10-31T21:28:37.827Z,26.95
2022-10-31T21:31:13.029Z,27.88
2022-10-31T21:33:39.845Z,28.40
2022-10-31T21:36:07.321Z,28.58
2022-10-31T21:38:34.367Z,28.52
2022-10-31T21:41:03.254Z,29.50
2022-10-31T21:43:30.032Z,28.48
2022-10-31T21:46:02.594Z,27.83
2022-10-31T21:48:28.982Z,27.30
2022-10-31T21:50:55.335Z,27.20
2022-10-31T21:53:40.132Z,29.05
2022-10-31T21:56:07.075Z,29.35
2022-10-31T21:58:36.195Z,28.52
2022-10-31T22:01:05.339Z,27.25
2022-10-31T22:03:38.692Z,28.52
2022-10-31T22:06:07.401Z,28.05
2022-10-31T22:08:34.044Z,28.45
2022-10-31T22:11:05.291Z,28.92
2022-10-31T22:13:33.166Z,28.25
2022-10-31T22:16:04.222Z,27.67
2022-10-31T22:18:30.769Z,28.05
2022-10-31T22:21:19.511Z,28.73
2022-10-31T22:23:51.085Z,30.83
2022-10-31T22:26:17.503Z,29.63
2022-10-31T22:28:46.084Z,28.50
2022-10-31T22:31:15.576Z,28.70
2022-10-31T22:33:42.008Z,29.15
2022-10-31T22:36:11.644Z,28.92
2022-10-31T22:38:42.187Z,28.55
2022-10-31T22:41:10.880Z,29.10
2022-10-31T22:43:37.541Z,25.52
2022-10-31T22:46:06.239Z,26.40
2022-10-31T22:48:37.110Z,26.52
2022-10-31T22:51:08.393Z,25.65
2022-10-31T22:53:35.981Z,25.95
2022-10-31T22:56:03.229Z,26.40
2022-10-31T22:58:30.931Z,25.95
2022-10-31T23:00:57.560Z,27.25
2022-10-31T23:03:24.699Z,25.88
2022-10-31T23:05:57.994Z,25.77
2022-10-31T23:08:25.400Z,25.67
2022-10-31T23:10:52.087Z,28.65
2022-10-31T23:13:36.941Z,40.60
2022-10-31T23:16:07.615Z,38.38
2022-10-31T23:18:49.718Z,39.20
2022-10-31T23:21:37.113Z,38.38
2022-10-31T23:24:03.745Z,38.75
2022-10-31T23:26:48.715Z,37.42
2022-10-31T23:29:15.008Z,35.35
2022-10-31T23:31:41.311Z,32.33
2022-10-31T23:34:07.642Z,37.75
2022-10-31T23:36:34.003Z,36.95
2022-10-31T23:39:00.394Z,36.05
2022-10-31T23:41:26.728Z,33.72
2022-10-31T23:43:53.012Z,35.78
2022-10-31T23:46:19.331Z,31.60
2022-10-31T23:48:48.045Z,34.67
2022-10-31T23:51:14.883Z,32.92
2022-10-31T23:53:45.010Z,35.88
2022-10-31T23:56:12.115Z,34.17
2022-10-31T23:58:38.850Z,34.78
